Palm Springs, CA

9:57 PM PDT on August 28, 2016 (GMT -0700)
North Palm Springs | | Change Station

Elev 636 ft 33.86 °N, 116.55 °W | Updated 1 minute ago

Clear
Clear
92.7 °F
Feels Like 90 °F
N
3.4
Wind Variable Wind from North

Today
High -- | Low -- °F
--% Chance of Precip.
Yesterday
High -- | Low -- °F
Precip. -- in
Pressure 29.88 in
Visibility 10.0 miles
Clouds Clear
Heat Index 90 °F
Dew Point 52 °F
Humidity 25%
Rainfall Not available.
Snow Depth Not available.
6:17 AM 7:16 PM
Waning Crescent, 11% visible
METAR KPSP 290453Z 36003KT 10SM CLR 36/10 A2989 RMK AO2 SLP117 T03560100 $
Pressure 29.88 in
Visibility 10.0 miles
Clouds Clear
Heat Index 90 °F
Dew Point 52 °F
Humidity 25%
Rainfall Not available.
Snow Depth Not available.
6:17 AM 7:16 PM
Waning Crescent, 11% visible
METAR KPSP 290453Z 36003KT 10SM CLR 36/10 A2989 RMK AO2 SLP117 T03560100 $

10-Day Weather Forecast

Almanac

Astronomy

Aug. 28, 2016 Rise Set
Actual Time
Civil Twilight
Nautical Twilight
Astronomical Twilight
Moon
Length of Visible Light
Length of Day
Tomorrow will be .
, % of the Moon is Illuminated

Today's Extremes

State Highs State Lows

Community

WunderPhotos

Upload Photos

1,935,799 photos uploaded!

WunderBlog® & News

Nearby

Air Quality

  Air Quality AQ Index Pollutant
Not available.

Snow Depth

Station Depth Elevation

Earthquake Activity

City Distance Mag. Time & Date
Minimum magnitude displayed is 2.5.

Coastal Water Temperatures

Place Temperature

Stations

Nearby Weather Stations

Station Location Temp. Windchill Dew Point Humidity Wind Precip. Elev Updated Type
                   

Watches & Warnings

There are currently no watches in effect.